createdAt,value
2022-12-11T00:01:36.339Z,22.83
2022-12-11T00:04:04.211Z,22.88
2022-12-11T00:06:31.613Z,18.77
2022-12-11T00:08:59.196Z,22.20
2022-12-11T00:11:26.972Z,23.63
2022-12-11T00:13:54.610Z,25.35
2022-12-11T00:16:26.763Z,23.50
2022-12-11T00:18:55.485Z,23.65
2022-12-11T00:21:23.059Z,24.25
2022-12-11T00:23:51.255Z,20.70
2022-12-11T00:26:18.733Z,26.40
2022-12-11T00:28:46.884Z,21.98
2022-12-11T00:31:17.418Z,21.23
2022-12-11T00:33:46.290Z,25.15
2022-12-11T00:36:15.993Z,22.98
2022-12-11T00:38:44.637Z,27.98
2022-12-11T00:41:12.721Z,29.30
2022-12-11T00:43:40.529Z,24.00
2022-12-11T00:46:08.400Z,21.38
2022-12-11T00:48:36.405Z,24.27
2022-12-11T00:51:04.130Z,28.35
2022-12-11T00:53:31.833Z,23.35
2022-12-11T00:55:59.497Z,26.48
2022-12-11T00:58:27.678Z,22.20
2022-12-11T01:00:55.295Z,23.88
2022-12-11T01:03:23.320Z,28.23
2022-12-11T01:05:56.988Z,25.42
2022-12-11T01:08:24.666Z,20.65
2022-12-11T01:11:00.726Z,24.88
2022-12-11T01:13:28.301Z,25.00
2022-12-11T01:15:55.986Z,22.38
2022-12-11T01:18:23.948Z,28.30
2022-12-11T01:20:51.700Z,23.98
2022-12-11T01:23:19.617Z,31.73
2022-12-11T01:25:47.089Z,25.33
2022-12-11T01:28:15.117Z,27.15
2022-12-11T01:30:43.877Z,29.75
2022-12-11T01:33:11.721Z,28.38
2022-12-11T01:35:40.319Z,28.80
2022-12-11T01:38:07.880Z,28.00
2022-12-11T01:40:35.403Z,27.40
2022-12-11T01:43:02.996Z,22.85
2022-12-11T01:45:41.987Z,23.58
2022-12-11T01:48:25.717Z,32.08
2022-12-11T01:51:00.024Z,28.10
2022-12-11T01:53:34.460Z,31.38
2022-12-11T01:56:03.708Z,28.02
2022-12-11T01:58:35.408Z,28.92
2022-12-11T02:01:03.751Z,25.63
2022-12-11T02:03:31.361Z,31.30
2022-12-11T02:06:02.795Z,30.60
2022-12-11T02:08:30.456Z,28.33
2022-12-11T02:11:05.133Z,28.88
2022-12-11T02:13:50.050Z,26.95
2022-12-11T02:19:02.888Z,30.58
2022-12-11T02:21:39.306Z,25.90
2022-12-11T02:24:25.007Z,27.42
2022-12-11T02:27:13.433Z,30.13
2022-12-11T02:30:05.602Z,27.48
2022-12-11T02:32:41.897Z,33.45
2022-12-11T02:35:23.013Z,29.25
2022-12-11T02:37:58.807Z,30.88
2022-12-11T02:40:30.144Z,30.95
2022-12-11T02:43:02.700Z,31.00
2022-12-11T02:45:32.441Z,29.70
2022-12-11T02:48:03.353Z,32.45
2022-12-11T02:50:31.865Z,28.17
2022-12-11T02:53:03.111Z,30.35
2022-12-11T02:55:33.734Z,27.65
2022-12-11T02:58:17.893Z,27.95
2022-12-11T03:00:47.081Z,31.27
2022-12-11T03:03:15.220Z,32.72
2022-12-11T03:05:43.122Z,30.90
2022-12-11T03:08:11.190Z,32.67
2022-12-11T03:10:38.779Z,31.25
2022-12-11T03:13:06.468Z,31.67
2022-12-11T03:16:03.327Z,32.42
2022-12-11T03:18:41.347Z,27.92
2022-12-11T03:21:21.154Z,31.40
2022-12-11T03:24:05.334Z,34.67
2022-12-11T03:26:39.532Z,33.22
2022-12-11T03:29:23.753Z,35.33
2022-12-11T03:32:03.837Z,30.92
2022-12-11T03:34:45.012Z,30.80
2022-12-11T03:37:15.008Z,34.10
2022-12-11T03:39:48.339Z,33.33
2022-12-11T03:42:18.127Z,29.70
2022-12-11T03:44:49.782Z,30.52
2022-12-11T03:47:24.024Z,33.25
2022-12-11T03:49:53.411Z,37.20
2022-12-11T03:52:21.964Z,35.28
2022-12-11T03:54:50.880Z,30.45
2022-12-11T03:57:22.503Z,29.45
2022-12-11T03:59:50.384Z,32.33
2022-12-11T04:02:17.940Z,36.47
2022-12-11T04:04:45.537Z,32.97
2022-12-11T04:07:13.493Z,35.90
2022-12-11T04:09:41.168Z,32.33
2022-12-11T04:12:08.772Z,36.25
2022-12-11T04:14:54.837Z,32.50
2022-12-11T04:17:40.829Z,35.70
2022-12-11T04:20:28.923Z,36.30
2022-12-11T04:23:15.053Z,36.17
2022-12-11T04:25:42.694Z,31.88
2022-12-11T04:28:10.828Z,32.95
2022-12-11T04:30:38.269Z,33.40
2022-12-11T04:33:05.935Z,30.83
2022-12-11T04:35:33.476Z,30.35
2022-12-11T04:38:01.472Z,33.60
2022-12-11T04:40:29.249Z,32.63
2022-12-11T04:42:56.761Z,36.80
2022-12-11T04:45:24.355Z,39.67
2022-12-11T04:47:51.949Z,31.45
2022-12-11T04:50:19.641Z,32.28
2022-12-11T04:52:47.170Z,31.88
2022-12-11T04:55:14.972Z,33.95
2022-12-11T04:57:42.521Z,38.20
2022-12-11T05:00:11.941Z,34.53
2022-12-11T05:02:41.141Z,33.75
2022-12-11T05:05:11.128Z,34.15
2022-12-11T05:07:39.029Z,38.38
2022-12-11T05:10:07.202Z,33.30
2022-12-11T05:12:34.768Z,34.38
2022-12-11T05:15:02.556Z,32.63
2022-12-11T05:17:30.168Z,38.30
2022-12-11T05:19:58.107Z,36.35
2022-12-11T05:22:25.623Z,41.63
2022-12-11T05:24:53.172Z,38.10
2022-12-11T05:27:21.011Z,45.80
2022-12-11T05:29:48.629Z,43.50
2022-12-11T05:32:16.206Z,42.00
2022-12-11T05:34:43.928Z,40.55
2022-12-11T05:37:11.741Z,44.22
2022-12-11T05:39:39.710Z,42.42
2022-12-11T05:42:07.221Z,43.25
2022-12-11T05:44:35.246Z,45.35
2022-12-11T05:47:02.737Z,48.42
2022-12-11T05:49:31.201Z,45.90
2022-12-11T05:51:58.911Z,42.33
2022-12-11T05:54:26.616Z,45.15
2022-12-11T05:56:54.572Z,48.15
2022-12-11T05:59:22.015Z,41.67
2022-12-11T06:01:49.748Z,44.40
2022-12-11T06:04:17.456Z,41.63
2022-12-11T06:06:45.007Z,47.70
2022-12-11T06:09:16.833Z,47.55
2022-12-11T06:11:44.409Z,51.03
2022-12-11T06:14:12.862Z,49.10
2022-12-11T06:16:41.018Z,49.25
2022-12-11T06:19:14.740Z,48.22
2022-12-11T06:21:42.467Z,47.75
2022-12-11T06:24:11.665Z,44.13
2022-12-11T06:26:39.371Z,47.72
2022-12-11T06:29:12.402Z,42.67
2022-12-11T06:31:40.505Z,44.60
2022-12-11T06:34:09.172Z,46.42
2022-12-11T06:36:37.358Z,49.15
2022-12-11T06:39:04.877Z,40.85
2022-12-11T06:41:32.578Z,49.38
2022-12-11T06:44:00.117Z,53.55
2022-12-11T06:46:27.748Z,48.50
2022-12-11T06:48:55.381Z,48.08
2022-12-11T06:51:23.508Z,55.33
2022-12-11T06:53:53.092Z,62.70
2022-12-11T06:56:21.470Z,53.97
2022-12-11T06:58:49.089Z,54.63
2022-12-11T07:01:23.190Z,51.63
2022-12-11T07:03:53.900Z,57.97
2022-12-11T07:06:22.283Z,46.60
2022-12-11T07:08:50.088Z,55.42
2022-12-11T07:11:19.673Z,55.25
2022-12-11T07:13:47.577Z,51.33
2022-12-11T07:16:16.545Z,52.97
2022-12-11T07:18:47.826Z,47.97
2022-12-11T07:21:15.758Z,52.75
2022-12-11T07:23:43.657Z,46.97
2022-12-11T07:26:16.940Z,41.88
2022-12-11T07:28:44.905Z,56.00
2022-12-11T07:31:15.743Z,53.90
2022-12-11T07:33:43.928Z,47.70
2022-12-11T07:36:13.617Z,51.38
2022-12-11T07:38:41.746Z,45.92
2022-12-11T07:41:12.034Z,54.45
2022-12-11T07:43:40.694Z,48.58
2022-12-11T07:46:14.914Z,50.90
2022-12-11T07:48:45.529Z,55.30
2022-12-11T07:51:15.060Z,53.50
2022-12-11T07:56:19.222Z,53.72
2022-12-11T08:01:19.779Z,54.60
2022-12-11T08:03:47.380Z,56.95
2022-12-11T08:06:15.145Z,57.88
2022-12-11T08:08:42.843Z,53.42
2022-12-11T08:11:12.805Z,54.38
2022-12-11T08:13:41.466Z,53.92
2022-12-11T08:16:13.169Z,60.65
2022-12-11T08:18:42.572Z,56.40
2022-12-11T08:21:12.864Z,49.45
2022-12-11T08:23:40.737Z,54.00
2022-12-11T08:26:10.971Z,52.78
2022-12-11T08:28:38.716Z,52.78
2022-12-11T08:31:08.556Z,51.80
2022-12-11T08:33:38.409Z,47.75
2022-12-11T08:36:12.689Z,57.70
2022-12-11T08:38:40.858Z,51.75
2022-12-11T08:41:28.799Z,54.55
2022-12-11T08:43:57.741Z,49.40
2022-12-11T08:46:28.403Z,56.20
2022-12-11T08:48:56.287Z,55.05
2022-12-11T08:51:26.289Z,51.65
2022-12-11T08:54:01.171Z,67.15
2022-12-11T08:56:29.169Z,65.43
2022-12-11T08:58:59.147Z,54.38
2022-12-11T09:01:28.131Z,54.75
2022-12-11T09:03:57.083Z,56.03
2022-12-11T09:06:28.379Z,50.08
2022-12-11T09:08:56.289Z,50.97
2022-12-11T09:11:27.509Z,52.38
2022-12-11T09:16:25.514Z,52.60
2022-12-11T09:18:55.528Z,52.03
2022-12-11T09:21:27.848Z,50.30
2022-12-11T09:24:00.637Z,60.83
2022-12-11T09:26:30.201Z,53.72
2022-12-11T09:28:58.478Z,50.42
2022-12-11T09:31:28.958Z,48.10
2022-12-11T09:34:06.250Z,52.97
2022-12-11T09:36:34.428Z,48.20
2022-12-11T09:39:04.597Z,54.42
2022-12-11T09:41:36.708Z,51.97
2022-12-11T09:44:39.708Z,58.30
2022-12-11T09:47:36.082Z,51.47
2022-12-11T09:50:15.606Z,47.95
2022-12-11T09:53:12.605Z,59.60
2022-12-11T09:55:58.744Z,55.95
2022-12-11T09:58:50.926Z,58.03
2022-12-11T10:01:25.788Z,61.92
2022-12-11T10:04:03.181Z,52.45
2022-12-11T10:06:41.423Z,49.78
2022-12-11T10:09:30.793Z,56.65
2022-12-11T10:12:04.662Z,50.35
2022-12-11T10:14:43.789Z,47.10
2022-12-11T10:17:20.635Z,50.40
2022-12-11T10:19:49.636Z,49.75
2022-12-11T10:22:27.365Z,51.80
2022-12-11T10:27:40.918Z,48.35
2022-12-11T10:30:23.621Z,52.70
2022-12-11T10:33:02.050Z,51.95
2022-12-11T10:35:47.831Z,54.65
2022-12-11T10:38:27.537Z,55.78
2022-12-11T10:40:59.394Z,47.25
2022-12-11T10:43:42.263Z,55.20
2022-12-11T10:46:22.617Z,44.85
2022-12-11T10:48:55.646Z,50.40
2022-12-11T10:51:34.019Z,49.75
2022-12-11T10:54:07.566Z,45.70
2022-12-11T10:56:37.883Z,55.25
2022-12-11T10:59:05.851Z,46.65
2022-12-11T11:01:33.439Z,53.30
2022-12-11T11:04:14.682Z,46.50
2022-12-11T11:06:42.227Z,42.45
2022-12-11T11:09:36.055Z,46.65
2022-12-11T11:12:07.829Z,44.25
2022-12-11T11:14:35.614Z,42.55
2022-12-11T11:17:03.169Z,48.65
2022-12-11T11:19:36.247Z,41.47
2022-12-11T11:22:12.749Z,53.88
2022-12-11T11:24:44.679Z,41.28
2022-12-11T11:27:45.266Z,39.83
2022-12-11T11:30:28.091Z,38.42
2022-12-11T11:33:00.719Z,32.20
2022-12-11T11:35:30.251Z,42.03
2022-12-11T11:38:13.239Z,36.25
2022-12-11T11:40:48.086Z,36.47
2022-12-11T11:43:29.327Z,37.13
2022-12-11T11:45:57.292Z,32.30
2022-12-11T11:48:40.233Z,35.00
2022-12-11T11:51:31.768Z,34.30
2022-12-11T11:54:02.052Z,29.13
2022-12-11T11:56:37.677Z,30.25
2022-12-11T11:59:39.878Z,30.50
2022-12-11T12:02:16.588Z,29.65
2022-12-11T12:04:45.899Z,29.75
2022-12-11T12:07:44.792Z,29.55
2022-12-11T12:10:34.317Z,28.55
2022-12-11T12:13:14.334Z,25.38
2022-12-11T12:16:00.261Z,18.30
2022-12-11T12:18:58.439Z,24.88
2022-12-11T12:21:36.461Z,25.20
2022-12-11T12:24:12.346Z,22.50
2022-12-11T12:27:03.309Z,23.15
2022-12-11T12:29:53.562Z,23.90
2022-12-11T12:32:48.617Z,22.10
2022-12-11T12:35:36.722Z,23.13
2022-12-11T12:38:04.277Z,21.20
2022-12-11T12:41:02.021Z,18.30
2022-12-11T12:43:32.817Z,19.20
2022-12-11T12:46:31.636Z,19.85
2022-12-11T12:49:00.302Z,19.35
2022-12-11T12:51:29.110Z,20.00
2022-12-11T12:54:00.473Z,22.42
2022-12-11T12:56:31.501Z,20.90
2022-12-11T12:58:59.485Z,21.45
2022-12-11T13:01:28.877Z,20.70
2022-12-11T13:04:02.153Z,24.75
2022-12-11T13:06:47.374Z,21.75
2022-12-11T13:09:26.350Z,21.58
2022-12-11T13:11:57.944Z,20.77
2022-12-11T13:14:28.051Z,23.30
2022-12-11T13:17:22.524Z,22.48
2022-12-11T13:19:57.545Z,19.27
2022-12-11T13:22:25.796Z,47.88
2022-12-11T13:24:53.395Z,37.78
2022-12-11T13:27:39.635Z,25.98
2022-12-11T13:30:23.126Z,25.13
2022-12-11T13:33:04.326Z,23.77
2022-12-11T13:35:33.870Z,20.35
2022-12-11T13:38:07.769Z,23.15
2022-12-11T13:40:44.265Z,21.80
2022-12-11T13:43:29.864Z,22.42
2022-12-11T13:46:04.149Z,19.92
2022-12-11T13:48:43.994Z,22.95
2022-12-11T13:51:20.042Z,24.73
2022-12-11T13:53:49.010Z,25.27
2022-12-11T13:56:19.681Z,24.30
2022-12-11T13:58:48.042Z,25.48
2022-12-11T14:01:27.447Z,23.17
2022-12-11T14:03:58.202Z,25.73
2022-12-11T14:06:28.553Z,26.65
2022-12-11T14:08:59.417Z,25.92
2022-12-11T14:11:39.229Z,25.77
2022-12-11T14:14:16.696Z,26.65
2022-12-11T14:16:51.646Z,25.45
2022-12-11T14:19:21.074Z,26.60
2022-12-11T14:22:04.172Z,27.83
2022-12-11T14:24:33.033Z,26.58
2022-12-11T14:27:01.336Z,27.45
2022-12-11T14:29:32.009Z,28.23
2022-12-11T14:32:04.094Z,26.10
2022-12-11T14:34:34.254Z,28.02
2022-12-11T14:37:06.296Z,28.40
2022-12-11T14:39:50.350Z,30.63
2022-12-11T14:42:22.135Z,30.73
2022-12-11T14:44:54.840Z,33.28
2022-12-11T14:47:29.125Z,26.77
2022-12-11T14:50:06.004Z,28.65
2022-12-11T14:52:40.194Z,29.58
2022-12-11T14:55:18.432Z,26.92
2022-12-11T14:57:49.976Z,34.65
2022-12-11T15:00:27.069Z,35.90
2022-12-11T15:05:34.464Z,34.75
2022-12-11T15:08:10.678Z,31.23
2022-12-11T15:10:43.092Z,29.02
2022-12-11T15:13:10.886Z,31.75
2022-12-11T15:15:47.817Z,34.35
2022-12-11T15:18:29.977Z,31.98
2022-12-11T15:21:01.334Z,35.35
2022-12-11T15:23:30.012Z,33.65
2022-12-11T15:26:00.018Z,32.17
2022-12-11T15:28:36.493Z,37.97
2022-12-11T15:31:25.754Z,38.63
2022-12-11T15:33:53.783Z,42.58
2022-12-11T15:36:32.305Z,41.13
2022-12-11T15:39:00.180Z,45.13
2022-12-11T15:41:33.136Z,48.67
2022-12-11T15:44:03.664Z,48.63
2022-12-11T15:46:36.454Z,49.33
2022-12-11T15:49:12.543Z,46.88
2022-12-11T15:51:43.076Z,56.20
2022-12-11T15:54:11.109Z,51.83
2022-12-11T15:56:39.956Z,51.33
2022-12-11T15:59:07.592Z,55.25
2022-12-11T16:01:35.218Z,57.08
2022-12-11T16:04:05.113Z,50.53
2022-12-11T16:06:33.603Z,56.63
2022-12-11T16:09:03.390Z,51.47
2022-12-11T16:11:31.802Z,53.75
2022-12-11T16:14:03.410Z,54.40
2022-12-11T16:16:31.884Z,59.80
2022-12-11T16:19:00.835Z,49.17
2022-12-11T16:21:28.426Z,56.00
2022-12-11T16:23:55.924Z,55.95
2022-12-11T16:26:40.204Z,51.67
2022-12-11T16:29:08.662Z,50.90
2022-12-11T16:31:36.169Z,50.22
2022-12-11T16:34:03.760Z,48.95
2022-12-11T16:36:31.428Z,59.88
2022-12-11T16:38:59.036Z,48.85
2022-12-11T16:41:26.644Z,46.28
2022-12-11T16:43:54.715Z,42.47
2022-12-11T16:46:24.940Z,41.90
2022-12-11T16:48:52.577Z,44.80
2022-12-11T16:51:20.084Z,41.33
2022-12-11T16:53:47.699Z,40.67
2022-12-11T16:56:15.343Z,32.78
2022-12-11T16:58:42.989Z,39.63
2022-12-11T17:01:15.308Z,37.55
2022-12-11T17:03:43.857Z,42.45
2022-12-11T17:06:14.635Z,40.00
2022-12-11T17:08:42.773Z,41.92
2022-12-11T17:11:13.516Z,39.53
2022-12-11T17:13:41.245Z,34.60
2022-12-11T17:16:11.886Z,40.08
2022-12-11T17:18:40.148Z,38.53
2022-12-11T17:21:09.715Z,43.60
2022-12-11T17:23:37.506Z,36.35
2022-12-11T17:26:06.079Z,37.95
2022-12-11T17:28:33.704Z,45.70
2022-12-11T17:31:05.180Z,42.38
2022-12-11T17:33:33.019Z,46.67
2022-12-11T17:36:01.564Z,46.72
2022-12-11T17:38:29.208Z,40.55
2022-12-11T17:40:56.957Z,38.53
2022-12-11T17:43:24.723Z,42.90
2022-12-11T17:45:52.987Z,42.83
2022-12-11T17:48:22.801Z,35.15
2022-12-11T17:50:52.136Z,40.05
2022-12-11T17:53:21.222Z,42.60
2022-12-11T17:55:51.703Z,41.95
2022-12-11T17:58:22.231Z,39.55
2022-12-11T18:00:53.191Z,35.75
2022-12-11T18:03:21.399Z,36.40
2022-12-11T18:05:51.182Z,45.60
2022-12-11T18:08:26.182Z,48.47
2022-12-11T18:10:54.491Z,40.65
2022-12-11T18:13:24.785Z,34.47
2022-12-11T18:16:04.433Z,45.60
2022-12-11T18:18:32.281Z,39.28
2022-12-11T18:20:59.934Z,38.70
2022-12-11T18:23:27.784Z,39.55
2022-12-11T18:25:55.437Z,62.17
2022-12-11T18:28:23.348Z,86.68
2022-12-11T18:30:50.932Z,65.45
2022-12-11T18:33:18.765Z,46.25
2022-12-11T18:35:48.941Z,42.00
2022-12-11T18:38:16.542Z,40.10
2022-12-11T18:40:44.172Z,47.00
2022-12-11T18:43:11.856Z,44.33
2022-12-11T18:45:41.557Z,44.15
2022-12-11T18:48:09.866Z,46.15
2022-12-11T18:50:37.827Z,47.22
2022-12-11T18:53:05.513Z,46.97
2022-12-11T18:55:33.056Z,42.58
2022-12-11T18:58:00.667Z,45.95
2022-12-11T19:00:28.186Z,45.65
2022-12-11T19:02:55.852Z,51.88
2022-12-11T19:05:23.414Z,38.47
2022-12-11T19:07:51.146Z,43.33
2022-12-11T19:10:18.742Z,41.85
2022-12-11T19:12:46.452Z,41.72
2022-12-11T19:15:17.454Z,52.42
2022-12-11T19:17:48.522Z,48.20
2022-12-11T19:20:47.355Z,43.10
2022-12-11T19:23:04.883Z,46.63
2022-12-11T19:25:32.739Z,38.35
2022-12-11T19:28:00.499Z,44.53
2022-12-11T19:30:28.254Z,44.08
2022-12-11T19:32:55.795Z,43.42
2022-12-11T19:35:23.400Z,45.88
2022-12-11T19:37:51.023Z,45.83
2022-12-11T19:40:19.501Z,38.55
2022-12-11T19:42:47.106Z,48.95
2022-12-11T19:45:14.881Z,48.78
2022-12-11T19:47:42.583Z,44.65
2022-12-11T19:50:10.469Z,43.95
2022-12-11T19:52:45.814Z,47.63
2022-12-11T19:55:15.163Z,45.10
2022-12-11T19:57:42.888Z,45.65
2022-12-11T20:00:10.987Z,40.95
2022-12-11T20:02:41.424Z,46.55
2022-12-11T20:05:09.829Z,35.55
2022-12-11T20:07:38.726Z,37.83
2022-12-11T20:10:07.461Z,38.70
2022-12-11T20:12:35.162Z,37.40
2022-12-11T20:15:06.773Z,39.42
2022-12-11T20:17:34.482Z,44.70
2022-12-11T20:20:02.234Z,47.90
2022-12-11T20:22:30.210Z,49.33
2022-12-11T20:24:57.800Z,48.63
2022-12-11T20:27:26.182Z,48.45
2022-12-11T20:29:53.687Z,48.65
2022-12-11T20:32:21.351Z,68.25
2022-12-11T20:34:49.021Z,56.92
2022-12-11T20:37:17.059Z,60.67
2022-12-11T20:39:45.790Z,62.45
2022-12-11T20:42:13.312Z,54.42
2022-12-11T20:44:47.274Z,47.60
2022-12-11T20:47:19.813Z,47.45
2022-12-11T20:49:49.502Z,47.80
2022-12-11T20:52:18.259Z,52.58
2022-12-11T20:54:46.044Z,49.10
2022-12-11T20:57:16.269Z,46.85
2022-12-11T20:59:45.250Z,51.15
2022-12-11T21:02:13.492Z,51.58
2022-12-11T21:04:41.630Z,49.20
2022-12-11T21:07:10.301Z,49.53
2022-12-11T21:09:39.246Z,48.80
2022-12-11T21:12:07.289Z,52.15
2022-12-11T21:14:35.713Z,44.03
2022-12-11T21:17:04.781Z,42.33
2022-12-11T21:19:32.801Z,48.50
2022-12-11T21:22:00.510Z,44.33
2022-12-11T21:24:29.748Z,47.55
2022-12-11T21:26:59.080Z,39.47
2022-12-11T21:29:29.454Z,50.55
2022-12-11T21:31:57.823Z,48.20
2022-12-11T21:34:25.963Z,46.40
2022-12-11T21:36:57.063Z,50.65
2022-12-11T21:39:26.538Z,43.20
2022-12-11T21:41:54.447Z,46.67
2022-12-11T21:47:09.780Z,47.22
2022-12-11T21:49:37.462Z,50.05
2022-12-11T21:52:05.245Z,45.17
2022-12-11T21:54:32.761Z,49.22
2022-12-11T21:57:00.291Z,51.53
2022-12-11T21:59:28.677Z,50.28
2022-12-11T22:01:56.673Z,49.40
2022-12-11T22:04:24.308Z,55.58
2022-12-11T22:06:51.888Z,51.10
2022-12-11T22:09:19.443Z,45.15
2022-12-11T22:11:47.536Z,46.85
2022-12-11T22:14:16.795Z,46.97
2022-12-11T22:16:45.017Z,54.10
2022-12-11T22:19:13.022Z,50.83
2022-12-11T22:21:40.838Z,52.50
2022-12-11T22:24:08.723Z,43.83
2022-12-11T22:26:36.382Z,52.58
2022-12-11T22:29:03.989Z,47.17
2022-12-11T22:31:31.690Z,50.03
2022-12-11T22:33:59.244Z,43.53
2022-12-11T22:36:27.461Z,55.13
2022-12-11T22:38:55.316Z,51.88
2022-12-11T22:41:26.279Z,56.85
2022-12-11T22:43:54.951Z,54.22
2022-12-11T22:46:25.318Z,65.45
2022-12-11T22:48:53.000Z,57.08
2022-12-11T22:51:21.015Z,59.53
2022-12-11T22:53:48.621Z,47.83
2022-12-11T22:56:16.396Z,53.72
2022-12-11T22:58:44.141Z,47.08
2022-12-11T23:01:16.205Z,48.78
2022-12-11T23:03:44.302Z,54.05
2022-12-11T23:06:15.819Z,55.70
2022-12-11T23:08:44.261Z,49.90
2022-12-11T23:11:18.181Z,49.85
2022-12-11T23:13:45.865Z,57.17
2022-12-11T23:16:14.025Z,53.35
2022-12-11T23:18:42.162Z,46.13
2022-12-11T23:21:10.701Z,56.97
2022-12-11T23:23:38.603Z,53.00
2022-12-11T23:26:08.254Z,54.10
2022-12-11T23:28:36.285Z,56.55
2022-12-11T23:31:04.222Z,56.85
2022-12-11T23:33:32.134Z,57.53
2022-12-11T23:35:59.911Z,70.03
2022-12-11T23:38:27.618Z,81.35
2022-12-11T23:40:55.756Z,96.18
2022-12-11T23:43:24.089Z,90.15
2022-12-11T23:45:51.737Z,86.32
2022-12-11T23:48:19.507Z,108.15
2022-12-11T23:50:47.209Z,94.78
2022-12-11T23:53:14.827Z,102.50
2022-12-11T23:55:44.469Z,110.13
2022-12-11T23:58:12.726Z,201.40
